Time;durP1;ratioP1;P1;durP2;ratioP2;P2;SDS_P1;SDS_P2;PMS_P1;PMS_P2;Temp;Humidity;BMP_temperature;BMP_pressure;BME280_temperature;BME280_humidity;BME280_pressure;Samples;Min_cycle;Max_cycle;Signal;HPM_P1;HPM_P2
2023/05/29 00:01:52;;;;;;;11.93;11.32;;;;;;;;;;5033577;28;20048;-63
2023/05/29 00:04:17;;;;;;;12.00;11.40;;;;;;;;;;5026726;28;20022;-63
2023/05/29 00:06:42;;;;;;;11.82;11.23;;;;;;;;;;5034313;28;20477;-64
2023/05/29 00:09:08;;;;;;;12.10;11.50;;;;;;;;;;5036702;28;20480;-63
2023/05/29 00:11:33;;;;;;;11.57;11.07;;;;;;;;;;5028575;28;20017;-63
2023/05/29 00:13:58;;;;;;;11.57;11.07;;;;;;;;;;5032179;28;20021;-63
2023/05/29 00:16:24;;;;;;;11.50;11.00;;;;;;;;;;5041203;28;20024;-63
2023/05/29 00:18:51;;;;;;;11.50;11.00;;;;;;;;;;5031420;28;20026;-63
2023/05/29 00:21:17;;;;;;;11.77;11.18;;;;;;;;;;5042549;28;20021;-63
2023/05/29 00:23:42;;;;;;;11.40;10.90;;;;;;;;;;5023342;28;20033;-63
2023/05/29 00:26:08;;;;;;;12.63;12.00;;;;;;;;;;5020104;28;20093;-63
2023/05/29 00:28:34;;;;;;;11.35;10.85;;;;;;;;;;5032303;28;20017;-63
2023/05/29 00:30:59;;;;;;;12.48;11.88;;;;;;;;;;5040678;28;20041;-63
2023/05/29 00:33:25;;;;;;;11.70;11.13;;;;;;;;;;5045825;28;20503;-63
2023/05/29 00:35:50;;;;;;;11.40;10.90;;;;;;;;;;5049854;28;20024;-63
2023/05/29 00:38:15;;;;;;;11.93;11.32;;;;;;;;;;5034180;28;20013;-63
2023/05/29 00:40:41;;;;;;;11.95;11.35;;;;;;;;;;5030621;28;20024;-63
2023/05/29 00:43:06;;;;;;;12.02;11.43;;;;;;;;;;5040040;28;20025;-64
2023/05/29 00:45:35;;;;;;;11.50;11.00;;;;;;;;;;5042947;28;20028;-63
2023/05/29 00:48:01;;;;;;;11.45;10.95;;;;;;;;;;5040077;28;20025;-63
2023/05/29 00:50:26;;;;;;;11.80;11.20;;;;;;;;;;5049464;28;20490;-63
2023/05/29 00:52:53;;;;;;;11.45;10.95;;;;;;;;;;5042189;28;20043;-63
2023/05/29 00:55:18;;;;;;;12.68;12.02;;;;;;;;;;5037656;28;20155;-63
2023/05/29 00:57:45;;;;;;;11.70;11.10;;;;;;;;;;5039949;28;20112;-62
2023/05/29 01:00:13;;;;;;;11.90;11.30;;;;;;;;;;5042512;28;20016;-63
2023/05/29 01:02:39;;;;;;;11.95;11.35;;;;;;;;;;5042918;28;20495;-63
2023/05/29 01:05:05;;;;;;;12.13;11.52;;;;;;;;;;5040262;28;20524;-63
2023/05/29 01:07:31;;;;;;;12.38;11.77;;;;;;;;;;5042911;28;20128;-62
2023/05/29 01:09:56;;;;;;;11.70;11.20;;;;;;;;;;5035170;28;20057;-63
2023/05/29 01:12:27;;;;;;;11.43;10.93;;;;;;;;;;5037406;28;20029;-63
2023/05/29 01:15:05;;;;;;;12.73;12.02;;;;;;;;;;5038772;28;20075;-63
2023/05/29 01:17:39;;;;;;;11.90;11.30;;;;;;;;;;5042169;28;20098;-64
2023/05/29 01:20:08;;;;;;;12.10;11.50;;;;;;;;;;5043172;28;20023;-64
2023/05/29 01:22:37;;;;;;;12.15;11.55;;;;;;;;;;5031668;28;20469;-64
2023/05/29 01:25:15;;;;;;;11.80;11.25;;;;;;;;;;5045372;28;20511;-63
2023/05/29 01:27:41;;;;;;;12.20;11.60;;;;;;;;;;5034208;28;20115;-63
2023/05/29 01:30:07;;;;;;;12.82;12.13;;;;;;;;;;5034575;28;20099;-63
2023/05/29 01:32:33;;;;;;;12.10;11.50;;;;;;;;;;5029131;28;20075;-63
2023/05/29 01:34:58;;;;;;;11.85;11.30;;;;;;;;;;5036052;28;20025;-64
2023/05/29 01:37:24;;;;;;;12.02;11.43;;;;;;;;;;5044843;28;20039;-63
2023/05/29 01:39:49;;;;;;;12.20;11.60;;;;;;;;;;5034466;28;20394;-63
2023/05/29 01:42:15;;;;;;;11.73;11.13;;;;;;;;;;5034054;28;20022;-63
2023/05/29 01:44:40;;;;;;;11.80;11.20;;;;;;;;;;5024510;28;20097;-63
2023/05/29 01:47:06;;;;;;;11.88;11.27;;;;;;;;;;5032049;28;20025;-64
2023/05/29 01:49:31;;;;;;;12.40;11.80;;;;;;;;;;5035115;28;20391;-64
2023/05/29 01:51:56;;;;;;;12.05;11.45;;;;;;;;;;5024767;28;20052;-63
2023/05/29 01:54:22;;;;;;;12.30;11.70;;;;;;;;;;5034568;28;20522;-63
2023/05/29 01:56:47;;;;;;;11.40;10.90;;;;;;;;;;5032857;28;20071;-62
2023/05/29 01:59:13;;;;;;;12.77;12.13;;;;;;;;;;5031538;28;20481;-64
2023/05/29 02:01:39;;;;;;;12.35;11.75;;;;;;;;;;5031335;28;20032;-63
2023/05/29 02:04:04;;;;;;;11.68;11.13;;;;;;;;;;5029039;28;20036;-63
2023/05/29 02:06:30;;;;;;;12.15;11.55;;;;;;;;;;5036243;28;20524;-63
2023/05/29 02:08:56;;;;;;;11.73;11.18;;;;;;;;;;5031974;28;20026;-63
2023/05/29 02:11:21;;;;;;;11.60;11.10;;;;;;;;;;5033633;28;20020;-63
2023/05/29 02:13:47;;;;;;;11.50;11.00;;;;;;;;;;5032130;28;20027;-63
2023/05/29 02:16:12;;;;;;;13.00;12.30;;;;;;;;;;5029689;28;20022;-64
2023/05/29 02:18:37;;;;;;;12.50;11.90;;;;;;;;;;5032365;28;20017;-63
2023/05/29 02:21:03;;;;;;;12.25;11.65;;;;;;;;;;5031731;28;20014;-63
2023/05/29 02:23:28;;;;;;;12.35;11.75;;;;;;;;;;5036429;28;20021;-63
2023/05/29 02:25:54;;;;;;;12.00;11.40;;;;;;;;;;5031057;28;20020;-64
2023/05/29 02:28:19;;;;;;;12.48;11.88;;;;;;;;;;5032315;28;20021;-63
2023/05/29 02:30:45;;;;;;;11.75;11.23;;;;;;;;;;5034885;28;20013;-65
2023/05/29 02:33:10;;;;;;;11.90;11.30;;;;;;;;;;5043394;28;20029;-64
2023/05/29 02:35:35;;;;;;;11.82;11.30;;;;;;;;;;5039555;28;20036;-64
2023/05/29 02:38:01;;;;;;;11.70;11.15;;;;;;;;;;5031531;28;20025;-64
2023/05/29 02:40:26;;;;;;;12.40;11.80;;;;;;;;;;5042575;28;20020;-64
2023/05/29 02:42:51;;;;;;;11.98;11.38;;;;;;;;;;5040272;28;20022;-64
2023/05/29 02:45:17;;;;;;;12.30;11.70;;;;;;;;;;5043915;28;20111;-64
2023/05/29 02:47:42;;;;;;;11.80;11.20;;;;;;;;;;5044503;28;20024;-64
2023/05/29 02:50:08;;;;;;;12.10;11.50;;;;;;;;;;5040378;28;20024;-64
2023/05/29 02:52:33;;;;;;;11.82;11.25;;;;;;;;;;5042239;28;20099;-64
2023/05/29 02:55:00;;;;;;;11.52;11.02;;;;;;;;;;5038341;28;20539;-63
2023/05/29 02:57:25;;;;;;;11.32;10.82;;;;;;;;;;5035919;28;20021;-64
2023/05/29 02:59:54;;;;;;;11.32;10.82;;;;;;;;;;5044079;28;20560;-64
2023/05/29 03:02:20;;;;;;;12.00;11.40;;;;;;;;;;5037953;28;20037;-64
2023/05/29 03:04:45;;;;;;;11.60;11.10;;;;;;;;;;5043075;28;20037;-64
2023/05/29 03:07:12;;;;;;;12.20;11.60;;;;;;;;;;5021777;28;20435;-64
2023/05/29 03:09:37;;;;;;;11.43;10.93;;;;;;;;;;5032441;28;20053;-64
2023/05/29 03:12:03;;;;;;;11.32;10.82;;;;;;;;;;5024876;28;20050;-65
2023/05/29 03:14:28;;;;;;;11.70;11.20;;;;;;;;;;5032990;28;20104;-64
2023/05/29 03:16:54;;;;;;;12.00;11.40;;;;;;;;;;5032934;28;20017;-64
2023/05/29 03:19:19;;;;;;;12.70;12.10;;;;;;;;;;5029862;28;20021;-64
2023/05/29 03:21:45;;;;;;;11.68;11.18;;;;;;;;;;5033120;28;20473;-64
2023/05/29 03:24:10;;;;;;;12.00;11.40;;;;;;;;;;5028615;28;20084;-65
2023/05/29 03:26:36;;;;;;;11.43;10.93;;;;;;;;;;5029549;28;20017;-64
2023/05/29 03:29:02;;;;;;;11.43;10.93;;;;;;;;;;5032705;28;20523;-65
2023/05/29 03:31:27;;;;;;;11.88;11.38;;;;;;;;;;5032683;28;20105;-64
2023/05/29 03:33:52;;;;;;;11.55;11.05;;;;;;;;;;5035738;28;20013;-65
2023/05/29 03:36:18;;;;;;;11.80;11.30;;;;;;;;;;5040706;28;20022;-63
2023/05/29 03:38:43;;;;;;;11.70;11.20;;;;;;;;;;5038899;28;20489;-63
2023/05/29 03:41:08;;;;;;;11.60;11.10;;;;;;;;;;5034823;28;20022;-63
2023/05/29 03:43:34;;;;;;;12.70;12.10;;;;;;;;;;5036818;28;20045;-64
2023/05/29 03:45:59;;;;;;;13.00;12.40;;;;;;;;;;5034408;28;20014;-64
2023/05/29 03:48:24;;;;;;;12.18;11.57;;;;;;;;;;5036436;28;20018;-64
2023/05/29 03:50:50;;;;;;;12.25;11.65;;;;;;;;;;5034237;28;20009;-64
2023/05/29 03:53:15;;;;;;;12.48;11.88;;;;;;;;;;5028975;28;20025;-64
2023/05/29 03:55:41;;;;;;;12.23;11.65;;;;;;;;;;5031213;28;20024;-63
2023/05/29 03:58:06;;;;;;;12.45;11.85;;;;;;;;;;5031808;28;20036;-63
2023/05/29 04:00:32;;;;;;;12.20;11.60;;;;;;;;;;5033039;28;20029;-64
2023/05/29 04:02:57;;;;;;;11.80;11.30;;;;;;;;;;5033514;28;20101;-63
2023/05/29 04:05:22;;;;;;;12.88;12.27;;;;;;;;;;5040257;28;20570;-64
2023/05/29 04:07:48;;;;;;;12.57;11.98;;;;;;;;;;5031598;28;20026;-64
2023/05/29 04:10:13;;;;;;;12.73;12.13;;;;;;;;;;5041320;28;20100;-64
2023/05/29 04:12:38;;;;;;;12.40;11.80;;;;;;;;;;5038041;28;20021;-64
2023/05/29 04:15:04;;;;;;;12.25;11.70;;;;;;;;;;5034315;28;20017;-64
2023/05/29 04:17:30;;;;;;;11.77;11.27;;;;;;;;;;5040475;28;20485;-64
2023/05/29 04:19:55;;;;;;;11.73;11.23;;;;;;;;;;5034645;28;20018;-64
2023/05/29 04:22:20;;;;;;;12.38;11.77;;;;;;;;;;5032076;28;20697;-64
2023/05/29 04:24:46;;;;;;;12.10;11.60;;;;;;;;;;5038743;28;20116;-65
2023/05/29 04:27:12;;;;;;;12.02;11.52;;;;;;;;;;5039428;28;20251;-65
2023/05/29 04:29:40;;;;;;;11.82;11.32;;;;;;;;;;5036621;28;20028;-64
2023/05/29 04:32:06;;;;;;;12.02;11.52;;;;;;;;;;5042002;28;20025;-64
2023/05/29 04:34:31;;;;;;;12.10;11.60;;;;;;;;;;5026248;28;20033;-65
2023/05/29 04:36:58;;;;;;;12.45;11.88;;;;;;;;;;5035581;28;20449;-64
2023/05/29 04:39:23;;;;;;;12.32;11.82;;;;;;;;;;5049457;28;20025;-64
2023/05/29 04:41:49;;;;;;;12.30;11.77;;;;;;;;;;5036424;28;20394;-66
2023/05/29 04:44:15;;;;;;;12.60;12.00;;;;;;;;;;5038094;28;20032;-65
2023/05/29 04:46:40;;;;;;;12.00;11.50;;;;;;;;;;5030687;28;20018;-64
2023/05/29 04:49:05;;;;;;;11.73;11.23;;;;;;;;;;5037612;28;20092;-65
2023/05/29 04:51:31;;;;;;;11.80;11.30;;;;;;;;;;5039354;28;20263;-65
2023/05/29 04:53:56;;;;;;;12.50;11.90;;;;;;;;;;5036880;28;20022;-64
2023/05/29 04:56:22;;;;;;;12.13;11.63;;;;;;;;;;5038468;28;20036;-65
2023/05/29 04:58:47;;;;;;;12.02;11.52;;;;;;;;;;5036410;28;20035;-63
2023/05/29 05:01:14;;;;;;;12.48;11.90;;;;;;;;;;5031679;28;20060;-63
2023/05/29 05:03:42;;;;;;;11.73;11.23;;;;;;;;;;5034916;28;20020;-63
2023/05/29 05:06:07;;;;;;;12.52;11.95;;;;;;;;;;5030106;28;20441;-64
2023/05/29 05:08:33;;;;;;;12.50;11.90;;;;;;;;;;5035493;28;20006;-63
2023/05/29 05:10:59;;;;;;;12.10;11.60;;;;;;;;;;5035114;28;20022;-62
2023/05/29 05:13:25;;;;;;;12.10;11.60;;;;;;;;;;5034790;28;20531;-64
2023/05/29 05:15:50;;;;;;;12.10;11.60;;;;;;;;;;5030909;28;20109;-64
2023/05/29 05:18:16;;;;;;;12.20;11.70;;;;;;;;;;5036378;28;20433;-64
2023/05/29 05:20:41;;;;;;;11.90;11.40;;;;;;;;;;5035640;28;20105;-64
2023/05/29 05:23:07;;;;;;;12.02;11.52;;;;;;;;;;5024807;28;20290;-64
2023/05/29 05:25:34;;;;;;;12.10;11.60;;;;;;;;;;5031704;28;20018;-64
2023/05/29 05:27:59;;;;;;;12.55;11.95;;;;;;;;;;5025708;28;20065;-64
2023/05/29 05:30:25;;;;;;;12.18;11.68;;;;;;;;;;5030050;28;20055;-64
2023/05/29 05:32:50;;;;;;;11.83;11.33;;;;;;;;;;5030072;28;20030;-64
2023/05/29 05:35:15;;;;;;;12.52;11.93;;;;;;;;;;5024954;28;20339;-64
2023/05/29 05:37:41;;;;;;;12.70;12.10;;;;;;;;;;5026254;28;20490;-64
2023/05/29 05:40:07;;;;;;;12.40;11.85;;;;;;;;;;5027900;28;20046;-64
2023/05/29 05:42:32;;;;;;;12.70;12.10;;;;;;;;;;5027172;28;20073;-63
2023/05/29 05:44:58;;;;;;;12.05;11.55;;;;;;;;;;5023423;28;20038;-63
2023/05/29 05:47:23;;;;;;;12.27;11.77;;;;;;;;;;5022753;28;20107;-63
2023/05/29 05:49:51;;;;;;;12.17;11.67;;;;;;;;;;5030372;28;20361;-64
2023/05/29 05:52:16;;;;;;;12.10;11.60;;;;;;;;;;5034924;28;20262;-63
2023/05/29 05:54:41;;;;;;;13.18;12.57;;;;;;;;;;5032752;28;20083;-64
2023/05/29 05:57:07;;;;;;;12.82;12.23;;;;;;;;;;5033349;28;20385;-64
2023/05/29 05:59:32;;;;;;;12.20;11.70;;;;;;;;;;5028962;28;20033;-64
2023/05/29 06:01:58;;;;;;;12.43;11.83;;;;;;;;;;5031502;28;20020;-65
2023/05/29 06:04:23;;;;;;;12.13;11.63;;;;;;;;;;5027940;28;20768;-63
2023/05/29 06:06:48;;;;;;;11.90;11.40;;;;;;;;;;5033784;28;20442;-64
2023/05/29 06:09:14;;;;;;;12.00;11.50;;;;;;;;;;5035303;28;20263;-64
2023/05/29 06:11:39;;;;;;;11.88;11.38;;;;;;;;;;5034598;28;20035;-63
2023/05/29 06:14:05;;;;;;;12.25;11.75;;;;;;;;;;5035351;28;20445;-63
2023/05/29 06:16:30;;;;;;;11.77;11.27;;;;;;;;;;5034125;28;20147;-63
2023/05/29 06:18:56;;;;;;;12.00;11.50;;;;;;;;;;5032279;28;20025;-64
2023/05/29 06:21:21;;;;;;;11.95;11.45;;;;;;;;;;5027044;28;20013;-63
2023/05/29 06:23:47;;;;;;;12.23;11.73;;;;;;;;;;5020676;28;20432;-63
2023/05/29 06:26:13;;;;;;;12.25;11.75;;;;;;;;;;5036230;28;20025;-64
2023/05/29 06:28:38;;;;;;;12.63;12.02;;;;;;;;;;5032262;28;20033;-63
2023/05/29 06:31:04;;;;;;;13.43;12.82;;;;;;;;;;5030808;28;20060;-64
2023/05/29 06:33:29;;;;;;;13.35;12.75;;;;;;;;;;5034306;28;20060;-64
2023/05/29 06:35:55;;;;;;;12.73;12.13;;;;;;;;;;5028496;28;20021;-64
2023/05/29 06:38:20;;;;;;;12.98;12.38;;;;;;;;;;5032815;28;20036;-63
2023/05/29 06:40:45;;;;;;;12.40;11.90;;;;;;;;;;5034132;28;20459;-63
2023/05/29 06:43:11;;;;;;;12.80;12.20;;;;;;;;;;5027422;28;20029;-63
2023/05/29 06:45:37;;;;;;;12.32;11.82;;;;;;;;;;5040830;28;20037;-65
2023/05/29 06:48:02;;;;;;;12.73;12.13;;;;;;;;;;5024029;28;20444;-68
2023/05/29 06:50:28;;;;;;;13.30;12.70;;;;;;;;;;5025637;28;20032;-69
2023/05/29 06:52:54;;;;;;;13.10;12.50;;;;;;;;;;5026918;28;20140;-72
2023/05/29 06:55:19;;;;;;;12.90;12.30;;;;;;;;;;5032305;28;20522;-71
2023/05/29 06:57:45;;;;;;;12.57;11.98;;;;;;;;;;5032040;28;20029;-69
2023/05/29 07:00:10;;;;;;;13.30;12.70;;;;;;;;;;5035239;28;20028;-71
2023/05/29 07:02:36;;;;;;;12.85;12.25;;;;;;;;;;5024984;28;20040;-70
2023/05/29 07:05:01;;;;;;;12.75;12.15;;;;;;;;;;5026101;28;20076;-70
2023/05/29 07:07:27;;;;;;;12.60;12.00;;;;;;;;;;5022664;28;20044;-71
2023/05/29 07:09:53;;;;;;;13.15;12.55;;;;;;;;;;5030001;28;20308;-70
2023/05/29 07:12:18;;;;;;;12.63;12.02;;;;;;;;;;5031926;28;20021;-73
2023/05/29 07:14:44;;;;;;;13.10;12.50;;;;;;;;;;5036626;28;20048;-67
2023/05/29 07:17:09;;;;;;;12.80;12.20;;;;;;;;;;5032921;28;20136;-69
2023/05/29 07:19:35;;;;;;;12.63;12.03;;;;;;;;;;5030911;28;20021;-69
2023/05/29 07:22:00;;;;;;;12.63;12.03;;;;;;;;;;5029872;28;20277;-71
2023/05/29 07:24:26;;;;;;;12.33;11.83;;;;;;;;;;5026972;28;20100;-69
2023/05/29 07:26:51;;;;;;;13.05;12.45;;;;;;;;;;5021747;28;20270;-69
2023/05/29 07:29:17;;;;;;;13.55;12.95;;;;;;;;;;5025861;28;21632;-70
2023/05/29 07:31:45;;;;;;;12.48;11.88;;;;;;;;;;5022984;28;20036;-69
2023/05/29 07:34:10;;;;;;;13.10;12.50;;;;;;;;;;5023764;28;20132;-69
2023/05/29 07:36:35;;;;;;;12.70;12.10;;;;;;;;;;5040212;28;20100;-69
2023/05/29 07:39:01;;;;;;;13.00;12.40;;;;;;;;;;5027941;28;20273;-70
2023/05/29 07:41:26;;;;;;;13.27;12.68;;;;;;;;;;5024178;28;20374;-67
2023/05/29 07:43:52;;;;;;;12.75;12.15;;;;;;;;;;5025242;28;20029;-66
2023/05/29 07:46:18;;;;;;;13.38;12.77;;;;;;;;;;5028617;28;20021;-64
2023/05/29 07:48:43;;;;;;;13.15;12.55;;;;;;;;;;5033401;28;20032;-65
2023/05/29 07:51:10;;;;;;;13.93;13.23;;;;;;;;;;5030657;28;20715;-67
2023/05/29 07:53:35;;;;;;;13.77;13.07;;;;;;;;;;5036545;28;20029;-68
2023/05/29 07:56:01;;;;;;;13.88;13.18;;;;;;;;;;5031039;28;20610;-67
2023/05/29 07:58:26;;;;;;;14.20;13.50;;;;;;;;;;5030008;28;20527;-67
2023/05/29 08:00:52;;;;;;;14.07;13.38;;;;;;;;;;5034429;28;20029;-68
2023/05/29 08:03:17;;;;;;;15.10;14.30;;;;;;;;;;5026533;28;20177;-66
2023/05/29 08:05:42;;;;;;;13.30;12.70;;;;;;;;;;5029892;28;20045;-69
2023/05/29 08:08:08;;;;;;;14.10;13.40;;;;;;;;;;5025887;28;20037;-67
2023/05/29 08:10:33;;;;;;;13.20;12.60;;;;;;;;;;5023765;28;20064;-66
2023/05/29 08:12:58;;;;;;;13.93;13.23;;;;;;;;;;5027376;28;21371;-66
2023/05/29 08:15:26;;;;;;;13.70;13.00;;;;;;;;;;5029891;28;20028;-67
2023/05/29 08:17:51;;;;;;;13.77;13.07;;;;;;;;;;5023900;28;20029;-68
2023/05/29 08:20:17;;;;;;;14.63;13.93;;;;;;;;;;5027770;28;20091;-67
2023/05/29 08:22:42;;;;;;;14.27;13.57;;;;;;;;;;5031927;28;20401;-67
2023/05/29 08:25:08;;;;;;;15.00;14.20;;;;;;;;;;5031195;28;20378;-66
2023/05/29 08:27:33;;;;;;;13.60;12.90;;;;;;;;;;5030987;28;20060;-67
2023/05/29 08:29:58;;;;;;;13.50;12.80;;;;;;;;;;5026520;28;20057;-67
2023/05/29 08:32:24;;;;;;;12.27;11.68;;;;;;;;;;5027731;28;20096;-68
2023/05/29 08:34:51;;;;;;;12.77;12.18;;;;;;;;;;5021499;28;20052;-67
2023/05/29 08:37:17;;;;;;;13.65;12.95;;;;;;;;;;5023768;28;20501;-68
2023/05/29 08:39:42;;;;;;;13.68;12.98;;;;;;;;;;5030552;28;20067;-67
2023/05/29 08:42:12;;;;;;;15.18;14.38;;;;;;;;;;5027729;28;20029;-69
2023/05/29 08:44:39;;;;;;;13.68;12.98;;;;;;;;;;5028731;28;20103;-68
2023/05/29 08:47:06;;;;;;;13.38;12.75;;;;;;;;;;5028345;28;20033;-68
2023/05/29 08:49:39;;;;;;;13.13;12.52;;;;;;;;;;5028667;28;20324;-67
2023/05/29 08:52:25;;;;;;;13.82;13.13;;;;;;;;;;5027098;28;20017;-67
2023/05/29 08:54:52;;;;;;;14.02;13.32;;;;;;;;;;5032412;28;20073;-70
2023/05/29 08:57:17;;;;;;;13.23;12.57;;;;;;;;;;5031897;28;20108;-69
2023/05/29 08:59:43;;;;;;;14.05;13.35;;;;;;;;;;5028634;28;20113;-68
2023/05/29 09:02:09;;;;;;;13.98;13.27;;;;;;;;;;5025986;28;20110;-69
2023/05/29 09:04:34;;;;;;;16.08;15.18;;;;;;;;;;5030844;28;20036;-66
2023/05/29 09:07:08;;;;;;;14.20;13.50;;;;;;;;;;5030038;28;20107;-68
2023/05/29 09:09:34;;;;;;;;;;;;;;;;;;5035051;28;20039;-67
2023/05/29 09:12:00;;;;;;;13.55;12.85;;;;;;;;;;5029406;28;19913;-68
2023/05/29 09:14:33;;;;;;;13.88;13.18;;;;;;;;;;5035203;28;20094;-69
2023/05/29 09:16:59;;;;;;;13.95;13.25;;;;;;;;;;5030869;28;20035;-68
2023/05/29 09:19:25;;;;;;;13.88;13.18;;;;;;;;;;5033027;28;20478;-71
2023/05/29 09:21:51;;;;;;;14.48;13.73;;;;;;;;;;5029935;28;20076;-67
2023/05/29 09:24:16;;;;;;;13.50;12.82;;;;;;;;;;5036009;28;20564;-67
2023/05/29 09:26:48;;;;;;;13.90;13.20;;;;;;;;;;5034592;28;20039;-67
2023/05/29 09:29:15;;;;;;;13.98;13.27;;;;;;;;;;5029385;28;20021;-67
2023/05/29 09:31:46;;;;;;;14.05;13.35;;;;;;;;;;5031046;28;20515;-69
2023/05/29 09:34:11;;;;;;;14.85;14.05;;;;;;;;;;5025663;28;20099;-68
2023/05/29 09:36:37;;;;;;;13.50;12.80;;;;;;;;;;5030730;28;20477;-67
2023/05/29 09:39:03;;;;;;;12.80;12.20;;;;;;;;;;5033268;28;20030;-65
2023/05/29 09:41:30;;;;;;;13.63;12.93;;;;;;;;;;5032465;28;20096;-67
2023/05/29 09:43:56;;;;;;;13.57;12.88;;;;;;;;;;5032262;28;20152;-68
2023/05/29 09:46:21;;;;;;;14.10;13.40;;;;;;;;;;5027089;28;20030;-68
2023/05/29 09:48:48;;;;;;;12.93;12.32;;;;;;;;;;5024474;28;20026;-69
2023/05/29 09:51:23;;;;;;;13.75;13.05;;;;;;;;;;5023973;28;20025;-68
2023/05/29 09:53:50;;;;;;;13.57;12.88;;;;;;;;;;5025986;28;20128;-68
2023/05/29 09:56:17;;;;;;;13.65;12.95;;;;;;;;;;5023350;28;20416;-69
2023/05/29 09:58:46;;;;;;;13.80;13.10;;;;;;;;;;5023896;28;20025;-70
2023/05/29 10:01:12;;;;;;;13.23;12.52;;;;;;;;;;5024053;28;20014;-67
2023/05/29 10:03:38;;;;;;;14.30;13.50;;;;;;;;;;5024247;28;20123;-67
2023/05/29 10:06:05;;;;;;;13.85;13.15;;;;;;;;;;5028889;28;20029;-67
2023/05/29 10:08:31;;;;;;;13.98;13.27;;;;;;;;;;5027138;28;20035;-64
2023/05/29 10:11:03;;;;;;;12.88;12.27;;;;;;;;;;5034960;28;20076;-64
2023/05/29 10:13:34;;;;;;;13.63;12.93;;;;;;;;;;5030701;28;20021;-64
2023/05/29 10:16:00;;;;;;;14.18;13.48;;;;;;;;;;5024177;28;20022;-65
2023/05/29 10:18:28;;;;;;;15.05;14.25;;;;;;;;;;5023514;28;20388;-65
2023/05/29 10:20:56;;;;;;;13.68;12.98;;;;;;;;;;5027431;28;20547;-66
2023/05/29 10:23:25;;;;;;;13.15;12.50;;;;;;;;;;5031856;28;20126;-66
2023/05/29 10:25:53;;;;;;;15.07;14.27;;;;;;;;;;5026108;28;20045;-65
2023/05/29 10:28:18;;;;;;;13.38;12.68;;;;;;;;;;5028894;28;20027;-66
2023/05/29 10:30:47;;;;;;;13.40;12.70;;;;;;;;;;5020052;28;20026;-65
2023/05/29 10:33:22;;;;;;;14.40;13.65;;;;;;;;;;5023482;28;20037;-66
2023/05/29 10:35:51;;;;;;;14.15;13.45;;;;;;;;;;5027026;28;20087;-66
2023/05/29 10:38:18;;;;;;;14.75;13.95;;;;;;;;;;5027881;28;20035;-64
2023/05/29 10:40:43;;;;;;;13.65;12.95;;;;;;;;;;5026277;28;20033;-66
2023/05/29 10:43:29;;;;;;;13.10;12.50;;;;;;;;;;5025427;28;20083;-67
2023/05/29 10:45:54;;;;;;;13.95;13.25;;;;;;;;;;5029293;28;20051;-66
2023/05/29 10:48:28;;;;;;;14.18;13.48;;;;;;;;;;5027070;28;20025;-68
2023/05/29 10:50:53;;;;;;;13.95;13.25;;;;;;;;;;5025311;28;20112;-67
2023/05/29 10:53:28;;;;;;;13.95;13.25;;;;;;;;;;5029035;28;20112;-65
2023/05/29 10:55:53;;;;;;;14.00;13.30;;;;;;;;;;5027289;28;20036;-65
2023/05/29 10:58:20;;;;;;;15.00;14.20;;;;;;;;;;5026631;28;20026;-65
2023/05/29 11:00:46;;;;;;;14.05;13.35;;;;;;;;;;5019928;28;20298;-64
2023/05/29 11:03:14;;;;;;;13.95;13.25;;;;;;;;;;5024379;28;20091;-65
2023/05/29 11:05:57;;;;;;;13.00;12.40;;;;;;;;;;5020044;28;20125;-65
2023/05/29 11:08:49;;;;;;;14.27;13.57;;;;;;;;;;5022684;28;20059;-65
2023/05/29 11:11:26;;;;;;;13.57;12.88;;;;;;;;;;5031117;28;20033;-65
2023/05/29 11:13:53;;;;;;;14.52;13.80;;;;;;;;;;5024052;28;20033;-65
2023/05/29 11:16:18;;;;;;;14.88;14.07;;;;;;;;;;5025792;28;20179;-66
2023/05/29 11:18:45;;;;;;;13.80;13.10;;;;;;;;;;5027009;28;20049;-67
2023/05/29 11:21:24;;;;;;;13.43;12.75;;;;;;;;;;5026058;28;20059;-64
2023/05/29 11:23:55;;;;;;;14.05;13.35;;;;;;;;;;5025729;28;20025;-68
2023/05/29 11:26:22;;;;;;;13.68;12.98;;;;;;;;;;5021844;28;20058;-67
2023/05/29 11:28:48;;;;;;;13.98;13.27;;;;;;;;;;5022900;28;20022;-66
2023/05/29 11:31:14;;;;;;;13.77;13.07;;;;;;;;;;5029100;28;20028;-65
2023/05/29 11:33:41;;;;;;;14.38;13.68;;;;;;;;;;5031496;28;20029;-66
2023/05/29 11:36:08;;;;;;;15.07;14.27;;;;;;;;;;5027148;28;20108;-64
2023/05/29 11:38:33;;;;;;;14.50;13.77;;;;;;;;;;5017390;28;20029;-66
2023/05/29 11:41:01;;;;;;;14.30;13.60;;;;;;;;;;5030926;28;20036;-66
2023/05/29 11:43:26;;;;;;;12.90;12.30;;;;;;;;;;5030641;28;20492;-64
2023/05/29 11:45:51;;;;;;;14.80;14.00;;;;;;;;;;5022455;28;20045;-67
2023/05/29 11:48:17;;;;;;;13.00;12.40;;;;;;;;;;5028243;28;20159;-64
2023/05/29 11:50:43;;;;;;;12.90;12.30;;;;;;;;;;5032147;28;20017;-64
2023/05/29 11:53:09;;;;;;;14.25;13.55;;;;;;;;;;5025974;28;20029;-66
2023/05/29 11:55:35;;;;;;;13.48;12.77;;;;;;;;;;5029110;28;20025;-63
2023/05/29 11:58:01;;;;;;;14.07;13.38;;;;;;;;;;5022476;28;20022;-65
2023/05/29 12:00:31;;;;;;;13.65;12.95;;;;;;;;;;5028359;28;20034;-64
2023/05/29 12:02:57;;;;;;;13.15;12.55;;;;;;;;;;5026746;28;20017;-64
2023/05/29 12:05:23;;;;;;;12.82;12.23;;;;;;;;;;5027253;28;20445;-64
2023/05/29 12:07:49;;;;;;;12.65;12.05;;;;;;;;;;5030320;28;20029;-64
2023/05/29 12:10:16;;;;;;;12.93;12.32;;;;;;;;;;5039397;28;20179;-65
2023/05/29 12:12:42;;;;;;;13.00;12.40;;;;;;;;;;5032221;28;20104;-65
2023/05/29 12:15:08;;;;;;;13.25;12.60;;;;;;;;;;5030021;28;20144;-65
2023/05/29 12:17:34;;;;;;;12.30;11.70;;;;;;;;;;5034109;28;20032;-63
2023/05/29 12:19:59;;;;;;;12.48;11.88;;;;;;;;;;5033480;28;20083;-65
2023/05/29 12:22:34;;;;;;;12.95;12.35;;;;;;;;;;5038681;28;20083;-65
2023/05/29 12:25:04;;;;;;;14.45;13.73;;;;;;;;;;5039478;28;20033;-65
2023/05/29 12:27:30;;;;;;;13.35;12.65;;;;;;;;;;5030237;28;20477;-63
2023/05/29 12:30:01;;;;;;;12.43;11.82;;;;;;;;;;5029602;28;20037;-64
2023/05/29 12:32:34;;;;;;;12.63;12.02;;;;;;;;;;5031698;28;20061;-64
2023/05/29 12:34:59;;;;;;;12.93;12.32;;;;;;;;;;5027574;28;20112;-64
2023/05/29 12:37:25;;;;;;;12.90;12.30;;;;;;;;;;5029718;28;20171;-64
2023/05/29 12:40:09;;;;;;;13.00;12.40;;;;;;;;;;5031179;28;20072;-63
2023/05/29 12:42:34;;;;;;;;;;;;;;;;;;5034140;28;20033;-64
2023/05/29 12:45:01;;;;;;;15.37;14.57;;;;;;;;;;5031280;28;19909;-65
2023/05/29 12:47:26;;;;;;;12.63;12.02;;;;;;;;;;5034117;28;20477;-64
2023/05/29 12:49:52;;;;;;;14.88;14.07;;;;;;;;;;5029260;28;20123;-64
2023/05/29 12:52:20;;;;;;;12.63;12.02;;;;;;;;;;5032548;28;20014;-65
2023/05/29 12:54:45;;;;;;;12.23;11.65;;;;;;;;;;5030475;28;20025;-64
2023/05/29 12:57:10;;;;;;;13.00;12.40;;;;;;;;;;5028815;28;20036;-64
2023/05/29 12:59:36;;;;;;;12.98;12.38;;;;;;;;;;5033445;28;20041;-64
2023/05/29 13:02:01;;;;;;;14.00;13.30;;;;;;;;;;5023948;28;20028;-63
2023/05/29 13:04:27;;;;;;;13.80;13.10;;;;;;;;;;5028555;28;20396;-65
2023/05/29 13:06:52;;;;;;;14.00;13.30;;;;;;;;;;5028181;28;20051;-64
2023/05/29 13:09:17;;;;;;;13.43;12.73;;;;;;;;;;5025198;28;20029;-62
2023/05/29 13:11:42;;;;;;;13.63;12.93;;;;;;;;;;5032770;28;20499;-65
2023/05/29 13:14:08;;;;;;;13.27;12.65;;;;;;;;;;5033205;28;20025;-63
2023/05/29 13:16:33;;;;;;;13.43;12.73;;;;;;;;;;5028054;28;20021;-65
2023/05/29 13:18:58;;;;;;;13.73;13.02;;;;;;;;;;5026303;28;20021;-63
2023/05/29 13:21:23;;;;;;;14.67;13.87;;;;;;;;;;5015906;28;20028;-64
2023/05/29 13:23:49;;;;;;;14.23;13.53;;;;;;;;;;5020895;28;20847;-65
2023/05/29 13:26:14;;;;;;;14.80;14.00;;;;;;;;;;5023977;28;20254;-66
2023/05/29 13:28:40;;;;;;;12.73;12.13;;;;;;;;;;5025933;28;20506;-66
2023/05/29 13:31:05;;;;;;;15.97;15.07;;;;;;;;;;5024161;28;20026;-66
2023/05/29 13:33:30;;;;;;;13.43;12.73;;;;;;;;;;5024994;28;20773;-67
2023/05/29 13:35:56;;;;;;;13.25;12.63;;;;;;;;;;5028718;28;20334;-68
2023/05/29 13:38:21;;;;;;;13.52;12.82;;;;;;;;;;5028377;28;20056;-66
2023/05/29 13:40:46;;;;;;;13.95;13.25;;;;;;;;;;5031342;28;20509;-66
2023/05/29 13:43:12;;;;;;;13.50;12.80;;;;;;;;;;5028531;28;20469;-66
2023/05/29 13:45:37;;;;;;;13.30;12.63;;;;;;;;;;5027180;28;20025;-66
2023/05/29 13:48:03;;;;;;;14.18;13.48;;;;;;;;;;5026633;28;20022;-64
2023/05/29 13:50:29;;;;;;;14.35;13.63;;;;;;;;;;5018968;28;20029;-64
2023/05/29 13:52:54;;;;;;;14.95;14.15;;;;;;;;;;5025186;28;20606;-67
2023/05/29 13:55:19;;;;;;;14.48;13.73;;;;;;;;;;5023015;28;20029;-68
2023/05/29 13:57:45;;;;;;;13.85;13.15;;;;;;;;;;5026278;28;20440;-69
2023/05/29 14:00:11;;;;;;;15.73;14.85;;;;;;;;;;5031186;28;20171;-69
2023/05/29 14:02:36;;;;;;;13.82;13.13;;;;;;;;;;5027039;28;20032;-66
2023/05/29 14:05:01;;;;;;;14.38;13.68;;;;;;;;;;5023965;28;20041;-69
2023/05/29 14:07:27;;;;;;;13.07;12.47;;;;;;;;;;5026329;28;20028;-67
2023/05/29 14:09:52;;;;;;;13.95;13.25;;;;;;;;;;5027652;28;20262;-68
2023/05/29 14:12:18;;;;;;;13.73;13.02;;;;;;;;;;5033988;28;20024;-65
2023/05/29 14:14:43;;;;;;;13.93;13.23;;;;;;;;;;5027548;28;20116;-65